Latest Weather Observations for PORTABLE QFRI (Inglewood)

IDQ60801

Issued at 3:43 pm EST Thursday 28 January 2021 (issued every 10 minutes, with the page automatically refreshed every 10 minutes)

About weather observations | Map of weather stations | Latest weather observations for QLD | Other Formats
Station Details ID: 250073 Name: INGLEWOOD (QFRI) Lat: -28.42 Lon: 151.10 Height: 286.0 m

Portable automatic weather stations (PAWS) are operated by other organisations, such as Fire and Emergency Services, and are included here by agreement. Portable stations may be deployed to a location for a short period and their location may be subject to change without notice. Wind observations from these stations are provided from heights of either three (3) or ten (10) metres above ground level (AGL).

Data from the previous 72 hours. | See also: Recent months for locations in Queensland
Date/Time
EST
Temp
°C
App
Temp
°C
Dew
Point
°C
Rel
Hum
%
Delta-T
°C
Wind Press
QNH
hPa
Press
MSL
hPa
Rain since
9am
mm
Dir  Spd
km/h
Gust
km/h
Spd
kts
Gust
kts
28/03:30pm 32.6 27.4 10.4 25 12.9 E 28 35 15 19 - - 0.0
28/03:20pm 32.4 28.0 10.4 26 12.8 E 24 32 13 17 - - 0.0
28/03:10pm 32.3 27.9 10.4 26 12.7 E 24 28 13 15 - - 0.0
28/03:00pm 32.3 27.5 11.5 28 12.3 E 28 37 15 20 - - 0.0
28/02:50pm 32.5 28.7 11.1 27 12.6 ESE 22 32 12 17 - - 0.0
28/02:40pm 32.7 29.2 12.1 28 12.3 E 22 28 12 15 - - 0.0
28/02:30pm 32.9 29.8 11.7 27 12.6 ESE 19 22 10 12 - - 0.0
28/02:20pm 32.7 30.0 11.6 27 12.5 E 17 32 9 17 - - 0.0
28/02:10pm 32.6 28.0 11.1 26 12.7 E 26 32 14 17 - - 0.0
28/02:00pm 32.6 28.7 10.7 26 12.8 E 22 30 12 16 - - 0.0
28/01:50pm 32.4 28.4 11.7 28 12.3 ESE 24 35 13 19 - - 0.0
28/01:40pm 32.1 28.0 11.3 28 12.3 E 24 30 13 16 - - 0.0
28/01:30pm 32.4 28.0 11.8 28 12.3 E 26 30 14 16 - - 0.0
28/01:20pm 32.5 28.8 11.5 27 12.4 E 22 28 12 15 - - 0.0
28/01:10pm 32.9 28.8 11.5 27 12.7 E 24 33 13 18 - - 0.0
28/01:00pm 33.0 28.9 11.3 26 12.8 E 24 35 13 19 - - 0.0
28/12:50pm 32.4 30.6 13.3 31 11.6 ENE 15 22 8 12 - - 0.0
28/12:40pm 31.9 29.3 13.1 31 11.4 ENE 19 24 10 13 - - 0.0
28/12:30pm 31.8 29.1 13.6 33 11.1 ENE 20 30 11 16 - - 0.0
28/12:20pm 31.9 29.6 14.0 33 11.0 ENE 19 26 10 14 - - 0.0
28/12:10pm 31.9 30.1 13.3 32 11.3 ENE 15 24 8 13 - - 0.0
28/12:00pm 32.2 29.4 12.6 30 11.8 ENE 19 22 10 12 - - 0.0
28/11:50am 32.5 29.3 13.1 30 11.8 E 22 30 12 16 - - 0.0
28/11:40am 32.0 28.4 12.9 31 11.5 E 24 33 13 18 - - 0.0
28/11:30am 31.7 28.5 13.2 32 11.2 E 22 26 12 14 - - 0.0
28/11:20am 31.5 27.6 13.2 32 11.1 E 26 35 14 19 - - 0.0
28/11:10am 31.6 28.8 13.2 32 11.1 ENE 20 22 11 12 - - 0.0
28/11:00am 31.1 28.9 13.2 33 10.8 ESE 17 20 9 11 - - 0.0
28/10:50am 30.9 28.6 12.9 33 10.8 E 17 22 9 12 - - 0.0
28/10:40am 30.8 28.3 13.6 35 10.4 E 19 26 10 14 - - 0.0
28/10:30am 30.6 27.4 13.0 34 10.6 E 22 28 12 15 - - 0.0
28/10:20am 29.9 27.0 12.9 35 10.2 E 20 28 11 15 - - 0.0
28/10:10am 29.7 26.9 13.2 36 9.9 E 20 28 11 15 - - 0.0
28/10:00am 28.9 26.9 14.0 40 9.0 ESE 17 19 9 10 - - 0.0
28/09:50am 28.9 27.3 14.0 40 9.0 ESE 15 19 8 10 - - 0.0
28/09:40am 28.5 27.9 14.5 42 8.5 SE 11 15 6 8 - - 0.0
28/09:30am 28.2 27.4 15.0 44 8.1 SSE 13 17 7 9 - - 0.0
28/09:20am 27.8 27.8 15.3 46 7.7 E 9 15 5 8 - - 0.0
28/09:10am 27.6 27.1 15.0 46 7.7 ESE 11 13 6 7 - - 0.0
28/09:00am 26.8 26.3 14.9 48 7.3 SE 11 15 6 8 - - 0.0
28/08:50am 25.9 26.5 15.8 53 6.2 SSE 7 11 4 6 - - 0.0
28/08:40am 25.7 26.3 15.9 54 6.1 ESE 7 11 4 6 - - 0.0
28/08:30am 25.5 26.2 16.1 56 5.8 E 7 9 4 5 - - 0.0
28/08:20am 25.4 25.7 16.0 56 5.8 ENE 9 13 5 7 - - 0.0
28/08:10am 25.6 26.0 16.2 56 5.8 ENE 9 13 5 7 - - 0.0
28/08:00am 25.9 25.9 16.2 55 6.0 ENE 11 11 6 6 - - 0.0
28/07:50am 26.0 25.6 16.3 55 6.0 ENE 13 17 7 9 - - 0.0
28/07:40am 26.0 26.2 16.7 56 5.8 ENE 11 17 6 9 - - 0.0
28/07:30am 25.8 26.5 17.0 58 5.5 ENE 9 11 5 6 - - 0.0
28/07:20am 25.8 26.4 16.9 58 5.6 ENE 9 13 5 7 - - 0.0
28/07:10am 25.4 26.1 17.1 60 5.2 ENE 9 11 5 6 - - 0.0
28/07:00am 25.4 26.0 16.9 59 5.3 NE 9 11 5 6 - - 0.0
28/06:50am 25.1 26.2 17.0 60 5.1 NE 7 11 4 6 - - 0.0
28/06:40am 24.9 26.0 17.1 62 4.9 ENE 7 9 4 5 - - 0.0
28/06:30am 24.4 26.0 16.9 63 4.7 NE 4 6 2 3 - - 0.0
28/06:20am 23.8 25.4 16.8 65 4.4 ENE 4 6 2 3 - - 0.0
28/06:10am 23.3 24.5 16.8 67 4.0 ENE 6 6 3 3 - - 0.0
28/06:00am 23.1 24.5 16.5 66 4.1 ENE 4 6 2 3 - - 0.0
28/05:50am 22.4 23.8 16.3 68 3.7 NE 4 4 2 2 - - 0.0
28/05:40am 22.1 23.8 16.3 69 3.6 NNW 2 4 1 2 - - 0.0
28/05:30am 21.8 23.5 16.1 70 3.5 W 2 4 1 2 - - 0.0
28/05:20am 21.4 23.4 16.1 72 3.2 CALM 0 4 0 2 - - 0.0
28/05:10am 21.2 22.1 16.1 72 3.1 E 6 7 3 4 - - 0.0
28/05:00am 21.6 22.5 16.2 71 3.3 E 6 7 3 4 - - 0.0
28/04:50am 21.8 23.1 16.2 70 3.4 E 4 6 2 3 - - 0.0
28/04:40am 21.8 23.1 16.1 70 3.5 E 4 6 2 3 - - 0.0
28/04:30am 22.0 22.7 16.2 69 3.5 E 7 11 4 6 - - 0.0
28/04:20am 22.4 22.3 16.1 67 3.9 E 11 11 6 6 - - 0.0
28/04:10am 22.3 22.6 16.1 68 3.8 E 9 11 5 6 - - 0.0
28/04:00am 22.5 22.9 16.2 67 3.9 E 9 9 5 5 - - 0.0
28/03:50am 23.0 23.9 16.1 65 4.2 ENE 6 7 3 4 - - 0.0
28/03:40am 23.0 23.7 16.0 64 4.3 ENE 7 9 4 5 - - 0.0
28/03:30am 22.9 22.8 15.9 64 4.3 ENE 11 13 6 7 - - 0.0
28/03:20am 22.9 22.0 15.9 64 4.3 ENE 15 15 8 8 - - 0.0
28/03:10am 23.1 22.2 15.9 64 4.4 ENE 15 17 8 9 - - 0.0
28/03:00am 23.2 22.3 15.8 63 4.5 ENE 15 17 8 9 - - 0.0
28/02:50am 23.5 22.6 15.9 62 4.7 E 15 17 8 9 - - 0.0
28/02:40am 23.7 22.8 15.8 61 4.8 ENE 15 17 8 9 - - 0.0
28/02:30am 23.9 23.0 15.9 61 4.9 ENE 15 17 8 9 - - 0.0
28/02:20am 24.1 23.2 15.9 60 5.0 ENE 15 17 8 9 - - 0.0
28/02:10am 24.3 23.4 15.9 59 5.2 E 15 19 8 10 - - 0.0
28/02:00am 24.5 22.8 15.8 58 5.3 E 19 22 10 12 - - 0.0
28/01:50am 24.6 22.7 15.7 57 5.5 E 20 22 11 12 - - 0.0
28/01:40am 24.8 22.5 15.7 57 5.6 E 22 26 12 14 - - 0.0
28/01:30am 24.9 23.2 15.7 56 5.6 E 19 24 10 13 - - 0.0
28/01:20am 25.0 23.1 15.7 56 5.7 E 20 22 11 12 - - 0.0
28/01:10am 25.2 22.5 15.7 55 5.8 E 24 28 13 15 - - 0.0
28/01:00am 25.2 23.5 15.7 55 5.8 ENE 19 22 10 12 - - 0.0
28/12:50am 25.2 24.4 16.0 56 5.7 ENE 15 19 8 10 - - 0.0
28/12:40am 25.5 24.7 16.2 56 5.8 ENE 15 17 8 9 - - 0.0
28/12:30am 25.8 24.2 15.9 54 6.1 ENE 19 20 10 11 - - 0.0
28/12:20am 26.0 24.7 15.9 53 6.2 E 17 19 9 10 - - 0.0
28/12:10am 26.2 24.7 16.3 54 6.2 E 19 22 10 12 - - 0.0
28/12:00am 26.4 25.3 16.4 54 6.2 ENE 17 20 9 11 - - 0.0
 
Date/Time
EST
Temp
°C
App
Temp
°C
Dew
Point
°C
Rel
Hum
%
Delta-T
°C
Wind Press
QNH
hPa
Press
MSL
hPa
Rain since
9am
mm
Dir  Spd
km/h
Gust
km/h
Spd
kts
Gust
kts
27/11:50pm 26.8 26.2 16.7 54 6.3 ENE 15 19 8 10 - - 0.0
27/11:40pm 27.0 26.8 16.8 53 6.4 ENE 13 17 7 9 - - 0.0
27/11:30pm 27.4 27.3 17.0 53 6.6 ENE 13 17 7 9 - - 0.0
27/11:20pm 27.6 26.7 16.8 51 6.8 ENE 17 22 9 12 - - 0.0
27/11:10pm 27.9 27.8 16.9 51 6.9 ENE 13 15 7 8 - - 0.0
27/11:00pm 28.1 27.6 17.0 51 7.0 ENE 15 19 8 10 - - 0.0
27/10:50pm 28.3 27.8 16.9 50 7.2 ENE 15 17 8 9 - - 0.0
27/10:40pm 28.6 27.3 16.8 48 7.5 ENE 19 20 10 11 - - 0.0
27/10:30pm 28.8 27.8 16.7 48 7.6 ENE 17 19 9 10 - - 0.0
27/10:20pm 29.0 27.6 16.6 47 7.8 ENE 19 20 10 11 - - 0.0
27/10:10pm 29.3 27.3 16.4 45 8.1 ENE 22 26 12 14 - - 0.0
27/10:00pm 29.5 26.6 16.2 44 8.4 E 26 30 14 16 - - 0.0
27/09:50pm 29.8 26.5 16.0 43 8.7 E 28 32 15 17 - - 0.0
27/09:40pm 30.1 27.1 15.8 42 9.0 E 26 30 14 16 - - 0.0
27/09:30pm 30.4 27.2 15.3 40 9.4 E 26 30 14 16 - - 0.0
27/09:20pm 30.5 28.3 14.9 38 9.7 E 20 22 11 12 - - 0.0
27/09:10pm 30.7 28.6 14.8 38 9.8 ENE 19 20 10 11 - - 0.0
27/09:00pm 30.9 29.1 14.4 36 10.1 E 17 22 9 12 - - 0.0
27/08:50pm 31.0 28.7 14.1 35 10.4 E 19 22 10 12 - - 0.0
27/08:40pm 31.3 29.2 13.7 34 10.7 ENE 17 19 9 10 - - 0.0
27/08:30pm 31.5 29.7 13.2 32 11.1 ENE 15 17 8 9 - - 0.0
27/08:20pm 32.0 30.1 12.9 31 11.5 ENE 15 17 8 9 - - 0.0
27/08:10pm 32.2 30.2 12.7 30 11.7 ENE 15 19 8 10 - - 0.0
27/08:00pm 32.4 29.9 12.3 29 12.0 ENE 17 20 9 11 - - 0.0
27/07:50pm 32.6 30.1 12.2 28 12.2 ENE 17 20 9 11 - - 0.0
27/07:40pm 32.7 30.0 11.8 28 12.4 ENE 17 20 9 11 - - 0.0
27/07:30pm 32.7 29.9 11.4 27 12.6 ENE 17 22 9 12 - - 0.0
27/07:20pm 32.9 29.1 9.2 23 13.6 E 19 20 10 11 - - 0.0
27/07:10pm 33.0 28.9 8.7 22 13.8 ENE 20 22 11 12 - - 0.0
27/07:00pm 33.2 29.2 8.4 21 14.0 ENE 19 22 10 12 - - 0.0
27/06:50pm 33.5 29.6 9.6 23 13.8 ENE 20 24 11 13 - - 0.0
27/06:40pm 33.8 30.1 9.6 22 14.0 ENE 19 22 10 12 - - 0.0
27/06:30pm 34.0 30.2 9.8 22 14.1 ENE 20 26 11 14 - - 0.0
27/06:20pm 34.2 30.2 10.5 23 13.9 ENE 22 28 12 15 - - 0.0
27/06:10pm 34.5 32.2 10.4 23 14.2 NNE 13 17 7 9 - - 0.0
27/06:00pm 34.7 32.0 10.4 22 14.3 NNE 15 19 8 10 - - 0.0
27/05:50pm 34.9 32.3 10.8 23 14.3 NE 15 19 8 10 - - 0.0
27/05:40pm 35.2 33.1 11.0 23 14.4 NE 13 17 7 9 - - 0.0
27/05:30pm 35.6 33.7 11.8 23 14.3 NE 13 19 7 10 - - 0.0
27/05:20pm 36.2 35.7 12.6 24 14.4 N 7 9 4 5 - - 0.0
27/05:10pm 36.8 36.3 12.8 23 14.7 N 7 13 4 7 - - 0.0
27/05:00pm 36.7 35.6 12.0 22 15.0 N 9 13 5 7 - - 0.0
27/04:50pm 36.3 34.8 12.0 23 14.7 NNE 11 15 6 8 - - 0.0
27/04:40pm 35.5 34.4 11.9 24 14.2 NNE 9 13 5 7 - - 0.0
27/04:30pm 35.2 34.2 12.2 25 13.9 NE 9 13 5 7 - - 0.0
27/04:20pm 35.3 33.5 12.2 24 14.0 NE 13 20 7 11 - - 0.0
27/04:10pm 35.6 34.8 11.8 23 14.3 ESE 7 13 4 7 - - 0.0
27/04:00pm 35.7 34.9 11.6 23 14.5 SSE 7 9 4 5 - - 0.0
27/03:50pm 36.0 35.3 11.5 22 14.7 E 6 11 3 6 - - 0.0
27/03:40pm 36.3 35.7 11.8 22 14.8 NW 6 11 3 6 - - 0.0
27/03:30pm 36.4 34.8 11.5 22 15.0 ENE 11 15 6 8 - - 0.0
27/03:20pm 36.5 35.6 11.5 22 15.0 E 7 11 4 6 - - 0.0
27/03:10pm 36.5 35.4 11.8 22 14.9 SE 9 13 5 7 - - 0.0
27/03:00pm 37.4 36.6 11.8 21 15.5 E 7 15 4 8 - - 0.0
27/02:50pm 37.3 36.7 11.7 21 15.5 SE 6 11 3 6 - - 0.0
27/02:40pm 37.1 36.8 11.5 21 15.4 NW 4 9 2 5 - - 0.0
27/02:30pm 35.9 35.3 11.8 23 14.5 ENE 6 9 3 5 - - 0.0
27/02:20pm 36.6 35.9 11.9 22 15.0 SE 7 11 4 6 - - 0.0
27/02:10pm 35.5 35.3 11.8 24 14.3 NNE 4 9 2 5 - - 0.0
27/02:00pm 35.1 33.3 12.2 25 13.8 ENE 13 17 7 9 - - 0.0
27/01:50pm 35.6 33.6 12.6 25 14.0 E 15 20 8 11 - - 0.0
27/01:40pm 36.4 35.9 12.2 23 14.7 NE 6 11 3 6 - - 0.0
27/01:30pm 35.3 34.5 11.8 24 14.1 ESE 7 17 4 9 - - 0.0
27/01:20pm 35.4 34.2 12.7 25 13.8 S 11 17 6 9 - - 0.0
27/01:10pm 35.8 35.1 13.2 25 13.9 ESE 9 17 5 9 - - 0.0
27/01:00pm 35.3 34.5 12.8 25 13.7 E 9 15 5 8 - - 0.0
27/12:50pm 35.5 35.2 13.2 26 13.7 ENE 7 11 4 6 - - 0.0
27/12:40pm 35.2 35.4 13.1 26 13.5 ESE 4 7 2 4 - - 0.0
27/12:30pm 34.6 34.4 12.9 27 13.2 S 6 11 3 6 - - 0.0
27/12:20pm 34.2 34.0 13.5 28 12.7 WSW 7 9 4 5 - - 0.0
27/12:10pm 33.8 33.8 13.6 29 12.4 SE 6 11 3 6 - - 0.0
27/12:00pm 33.6 33.4 13.5 29 12.3 ESE 7 9 4 5 - - 0.0
27/11:50am 33.9 34.0 14.0 30 12.3 SE 6 11 3 6 - - 0.0
27/11:40am 33.8 34.0 14.3 31 12.1 WNW 6 11 3 6 - - 0.0
27/11:30am 33.8 34.8 14.3 31 12.1 NW 2 4 1 2 - - 0.0
27/11:20am 32.9 33.8 14.1 32 11.6 SSE 2 6 1 3 - - 0.0
27/11:10am 32.4 33.1 14.5 33 11.1 NE 4 7 2 4 - - 0.0
27/11:00am 32.0 32.2 14.1 33 11.0 S 6 11 3 6 - - 0.0
27/10:50am 31.8 32.1 14.4 34 10.7 E 6 9 3 5 - - 0.0
27/10:40am 31.9 32.3 14.8 35 10.6 NE 6 9 3 5 - - 0.0
27/10:30am 31.4 31.8 14.8 36 10.3 ENE 6 9 3 5 - - 0.0
27/10:20am 30.8 31.3 15.0 38 9.8 E 6 7 3 4 - - 0.0
27/10:10am 30.6 31.1 14.9 38 9.7 WNW 6 11 3 6 - - 0.0
27/10:00am 30.6 30.4 14.6 37 9.9 NW 9 15 5 8 - - 0.0
27/09:50am 30.4 31.5 14.7 38 9.7 WNW 2 6 1 3 - - 0.0
27/09:40am 29.3 29.6 15.0 41 8.8 NNE 7 11 4 6 - - 0.0
27/09:30am 28.9 29.2 14.9 42 8.6 ENE 7 13 4 7 - - 0.0
27/09:20am 28.4 28.7 14.9 43 8.3 NE 7 11 4 6 - - 0.0
27/09:10am 28.3 28.5 14.7 43 8.3 NNE 7 9 4 5 - - 0.0
27/09:00am 27.7 28.0 15.1 46 7.7 N 7 11 4 6 - - 0.0
27/08:50am 27.2 27.1 14.9 47 7.5 N 9 13 5 7 - - 0.0
27/08:40am 27.1 27.6 15.6 49 7.1 NNE 7 11 4 6 - - 0.0
27/08:30am 26.6 26.5 15.0 49 7.1 NNE 9 13 5 7 - - 0.0
27/08:20am 26.3 26.3 15.2 50 6.8 NNE 9 13 5 7 - - 0.0
27/08:10am 25.9 26.0 15.4 52 6.4 NNE 9 11 5 6 - - 0.0
27/08:00am 25.6 25.7 15.5 53 6.2 N 9 11 5 6 - - 0.0
27/07:50am 25.2 25.8 15.7 55 5.8 NNE 7 11 4 6 - - 0.0
27/07:40am 24.8 25.3 15.6 56 5.6 NNE 7 11 4 6 - - 0.0
27/07:30am 24.4 25.0 15.7 58 5.3 NE 7 11 4 6 - - 0.0
27/07:20am 24.1 24.3 15.8 59 5.1 NE 9 11 5 6 - - 0.0
27/07:10am 23.9 24.5 15.7 60 5.0 NE 7 11 4 6 - - 0.0
27/07:00am 23.6 24.2 15.8 61 4.8 NNE 7 11 4 6 - - 0.0
27/06:50am 23.2 23.9 15.5 62 4.7 NE 6 9 3 5 - - 0.0
27/06:40am 22.8 23.3 15.5 63 4.4 ENE 7 9 4 5 - - 0.0
27/06:30am 22.7 23.7 15.4 63 4.4 E 4 7 2 4 - - 0.0
27/06:20am 22.3 23.2 15.1 63 4.3 E 4 4 2 2 - - 0.0
27/06:10am 21.7 23.0 15.2 66 3.9 SE 2 4 1 2 - - 0.0
27/06:00am 21.2 22.6 15.4 69 3.5 ESE 2 4 1 2 - - 0.0
27/05:50am 21.0 22.2 14.9 68 3.6 ENE 2 4 1 2 - - 0.0
27/05:40am 20.6 21.8 15.0 70 3.3 NNE 2 4 1 2 - - 0.0
27/05:30am 20.5 21.7 15.0 70 3.3 NNE 2 4 1 2 - - 0.0
27/05:20am 20.6 21.5 15.0 70 3.3 N 4 4 2 2 - - 0.0
27/05:10am 20.7 21.2 14.9 69 3.5 NNE 6 6 3 3 - - 0.0
27/05:00am 20.8 21.3 14.9 69 3.5 NNE 6 6 3 3 - - 0.0
27/04:50am 20.9 21.7 14.8 68 3.6 N 4 6 2 3 - - 0.0
27/04:40am 21.2 22.0 14.8 67 3.8 NE 4 6 2 3 - - 0.0
27/04:30am 21.4 21.8 14.7 65 4.0 NE 6 7 3 4 - - 0.0
27/04:20am 21.5 21.7 14.6 65 4.1 NE 7 9 4 5 - - 0.0
27/04:10am 21.5 21.6 14.4 64 4.2 NE 7 9 4 5 - - 0.0
27/04:00am 21.5 21.5 14.2 63 4.3 NE 7 11 4 6 - - 0.0
27/03:50am 21.6 21.6 14.1 62 4.4 NE 7 7 4 4 - - 0.0
27/03:40am 21.7 21.7 14.1 62 4.5 NE 7 7 4 4 - - 0.0
27/03:30am 21.9 21.9 14.1 61 4.6 NE 7 9 4 5 - - 0.0
27/03:20am 22.0 21.9 13.9 60 4.8 NE 7 9 4 5 - - 0.0
27/03:10am 22.1 22.0 13.8 59 4.9 NE 7 11 4 6 - - 0.0
27/03:00am 22.1 21.6 13.8 59 4.9 NNE 9 11 5 6 - - 0.0
27/02:50am 22.2 22.1 13.8 59 4.9 NNE 7 11 4 6 - - 0.0
27/02:40am 22.3 21.8 13.8 58 5.0 NNE 9 11 5 6 - - 0.0
27/02:30am 22.3 21.8 13.9 59 5.0 NNE 9 11 5 6 - - 0.0
27/02:20am 22.6 22.8 14.1 58 5.0 NE 6 6 3 3 - - 0.0
27/02:10am 22.9 23.5 14.2 58 5.2 NE 4 6 2 3 - - 0.0
27/02:00am 22.9 22.9 14.2 58 5.2 NNE 7 9 4 5 - - 0.0
27/01:50am 22.9 22.6 14.4 58 5.1 NNE 9 11 5 6 - - 0.0
27/01:40am 23.2 23.5 14.6 58 5.1 NE 6 7 3 4 - - 0.0
27/01:30am 23.5 24.3 14.7 57 5.3 NE 4 6 2 3 - - 0.0
27/01:20am 23.7 24.1 14.8 57 5.4 NE 6 9 3 5 - - 0.0
27/01:10am 23.9 24.1 14.7 56 5.5 NE 7 9 4 5 - - 0.0
27/01:00am 24.1 24.3 14.7 55 5.7 NE 7 7 4 4 - - 0.0
27/12:50am 24.1 24.3 14.6 55 5.7 NE 7 9 4 5 - - 0.0
27/12:40am 24.1 24.3 14.7 55 5.7 NNE 7 9 4 5 - - 0.0
27/12:30am 24.3 24.7 14.7 55 5.8 NNE 6 7 3 4 - - 0.0
27/12:20am 24.6 24.9 14.6 53 6.0 NE 6 6 3 3 - - 0.0
27/12:10am 24.9 25.2 14.6 52 6.2 NE 6 7 3 4 - - 0.0
27/12:00am 25.2 25.3 14.5 51 6.4 NE 7 7 4 4 - - 0.0
 
Date/Time
EST
Temp
°C
App
Temp
°C
Dew
Point
°C
Rel
Hum
%
Delta-T
°C
Wind Press
QNH
hPa
Press
MSL
hPa
Rain since
9am
mm
Dir  Spd
km/h
Gust
km/h
Spd
kts
Gust
kts
26/11:50pm 25.5 25.2 14.4 50 6.7 NE 9 11 5 6 - - 0.0
26/11:40pm 25.6 25.7 14.4 50 6.7 NE 7 11 4 6 - - 0.0
26/11:30pm 25.8 25.5 14.3 49 6.9 NNE 9 13 5 7 - - 0.0
26/11:20pm 25.9 25.9 14.2 48 7.0 NE 7 15 4 8 - - 0.0
26/11:10pm 26.3 26.3 14.1 47 7.3 NE 7 11 4 6 - - 0.0
26/11:00pm 26.6 26.1 13.9 45 7.6 NE 9 11 5 6 - - 0.0
26/10:50pm 26.7 25.9 13.9 45 7.7 NNE 11 15 6 8 - - 0.0
26/10:40pm 26.9 26.4 13.8 44 7.9 NE 9 13 5 7 - - 0.0
26/10:30pm 27.0 26.8 13.7 44 8.0 NE 7 11 4 6 - - 0.0
26/10:20pm 27.3 26.8 13.7 43 8.2 NE 9 11 5 6 - - 0.0
26/10:10pm 27.5 26.6 13.6 42 8.3 NNE 11 17 6 9 - - 0.0
26/10:00pm 27.7 26.8 13.6 42 8.5 NNE 11 15 6 8 - - 0.0
26/09:50pm 27.9 26.9 13.4 40 8.7 NNE 11 13 6 7 - - 0.0
26/09:40pm 28.1 26.7 13.3 40 8.9 NNE 13 15 7 8 - - 0.0
26/09:30pm 28.4 27.3 13.1 39 9.1 NNE 11 15 6 8 - - 0.0
26/09:20pm 28.7 27.2 13.0 38 9.4 NNE 13 15 7 8 - - 0.0
26/09:10pm 29.0 27.4 12.8 36 9.7 NNE 13 17 7 9 - - 0.0
26/09:00pm 29.1 27.1 12.7 36 9.8 NNE 15 17 8 9 - - 0.0
26/08:50pm 29.0 27.7 12.4 36 9.8 NNE 11 17 6 9 - - 0.0
26/08:40pm 29.4 29.2 11.7 33 10.4 N 4 6 2 3 - - 0.0
26/08:30pm 29.7 29.3 11.1 31 10.8 NNW 4 6 2 3 - - 0.0
26/08:20pm 29.7 29.4 11.4 32 10.7 NNW 4 6 2 3 - - 0.0
26/08:10pm 29.7 29.4 11.3 32 10.7 NNW 4 6 2 3 - - 0.0
26/08:00pm 30.0 29.7 11.3 31 10.9 NNW 4 4 2 2 - - 0.0
26/07:50pm 30.0 29.6 11.2 31 11.0 NNW 4 7 2 4 - - 0.0
26/07:40pm 30.3 29.7 11.6 31 11.0 N 6 6 3 3 - - 0.0
26/07:30pm 31.0 31.1 11.4 30 11.5 NW 2 6 1 3 - - 0.0
26/07:20pm 31.5 30.7 11.0 28 12.0 WSW 6 6 3 3 - - 0.0
26/07:10pm 31.7 30.7 10.9 27 12.2 WSW 7 7 4 4 - - 0.0
26/07:00pm 32.1 31.1 10.9 27 12.4 WSW 7 9 4 5 - - 0.0
26/06:50pm 32.6 31.5 10.8 26 12.8 WSW 7 9 4 5 - - 0.0
26/06:40pm 33.3 32.1 10.2 24 13.5 W 7 9 4 5 - - 0.0
26/06:30pm 33.7 32.4 10.0 23 13.8 W 7 9 4 5 - - 0.0
26/06:20pm 33.8 32.7 10.5 24 13.7 SW 7 11 4 6 - - 0.0
26/06:10pm 33.9 32.0 10.4 23 13.8 SW 11 13 6 7 - - 0.0
26/06:00pm 34.3 32.8 10.6 23 13.9 WSW 9 13 5 7 - - 0.0
26/05:50pm 34.4 33.3 10.7 23 14.0 WNW 7 13 4 7 - - 0.0
26/05:40pm 34.7 32.8 10.6 23 14.2 WSW 11 17 6 9 - - 0.0
26/05:30pm 34.8 33.5 10.1 22 14.5 W 7 11 4 6 - - 0.0
26/05:20pm 34.3 32.5 9.5 22 14.4 WNW 9 11 5 6 - - 0.0
26/05:10pm 33.8 31.8 10.2 23 13.8 WNW 11 15 6 8 - - 0.0
26/05:00pm 34.8 33.3 10.4 22 14.3 WNW 9 15 5 8 - - 0.0
26/04:50pm 35.3 33.7 10.1 21 14.8 WNW 9 15 5 8 - - 0.0
26/04:40pm 35.7 34.1 10.1 21 15.0 W 9 15 5 8 - - 0.0
26/04:30pm 35.6 34.3 10.1 21 15.0 NNW 7 11 4 6 - - 0.0
26/04:20pm 35.4 34.3 9.9 21 14.9 N 6 9 3 5 - - 0.0
26/04:10pm 35.6 34.0 10.1 21 15.0 N 9 11 5 6 - - 0.0
26/04:00pm 35.6 33.6 10.3 21 14.9 N 11 15 6 8 - - 0.0
26/03:50pm 35.8 34.5 9.8 20 15.2 NE 7 11 4 6 - - 0.0
26/03:40pm 35.5 34.1 9.7 20 15.1 N 7 11 4 6 - - 0.0
26/03:30pm 35.6 34.5 10.0 21 15.0 NNE 6 13 3 7 - - 0.0
26/03:20pm 35.2 33.9 10.0 21 14.8 N 7 15 4 8 - - 0.0
26/03:10pm 34.3 33.6 10.0 22 14.2 E 4 7 2 4 - - 0.0
26/03:00pm 33.7 32.6 10.1 23 13.8 WNW 6 7 3 4 - - 0.0
26/02:50pm 34.1 33.1 10.2 23 14.0 N 6 9 3 5 - - 0.0
26/02:40pm 34.5 33.8 10.2 22 14.2 N 4 6 2 3 - - 0.0
26/02:30pm 34.9 33.8 10.8 23 14.3 NE 7 9 4 5 - - 0.0
26/02:20pm 35.1 33.9 10.4 22 14.5 NW 7 17 4 9 - - 0.0
26/02:10pm 34.7 33.2 10.7 23 14.2 SSW 9 15 5 8 - - 0.0
26/02:00pm 34.0 32.5 10.5 23 13.8 SSE 9 15 5 8 - - 0.0
26/01:50pm 33.6 32.5 10.5 24 13.5 ESE 7 11 4 6 - - 0.0
26/01:40pm 32.7 31.2 10.7 26 12.9 E 9 13 5 7 - - 0.0
26/01:30pm 33.3 32.5 10.9 25 13.2 NNE 6 11 3 6 - - 0.0
26/01:20pm 34.0 32.6 10.9 24 13.6 NNE 9 11 5 6 - - 0.0
26/01:10pm 33.9 33.2 11.4 25 13.4 E 6 9 3 5 - - 0.0
26/01:00pm 34.2 33.0 11.5 25 13.5 WNW 9 17 5 9 - - 0.0
26/12:50pm 34.6 34.0 11.6 24 13.8 W 6 13 3 7 - - 0.0
26/12:40pm 33.4 32.7 12.1 27 12.8 W 7 15 4 8 - - 0.0
26/12:30pm 32.9 31.4 12.0 28 12.5 NNW 11 13 6 7 - - 0.0
26/12:20pm 32.5 31.6 12.6 29 12.0 NE 9 11 5 6 - - 0.0
26/12:10pm 33.2 32.9 12.7 28 12.4 NNE 6 13 3 7 - - 0.0
26/12:00pm 32.6 32.0 12.4 29 12.1 NNW 7 11 4 6 - - 0.0
26/11:50am 32.4 32.0 12.3 29 12.0 NNW 6 11 3 6 - - 0.0
26/11:40am 32.0 31.5 12.8 31 11.6 NE 7 11 4 6 - - 0.0
26/11:30am 32.1 31.8 12.7 30 11.7 NW 6 7 3 4 - - 0.0
26/11:20am 31.4 30.8 12.3 31 11.4 ENE 7 13 4 7 - - 0.0
26/11:10am 30.9 30.0 12.6 32 11.0 ENE 9 13 5 7 - - 0.0
26/11:00am 30.7 30.2 12.5 32 10.9 ENE 7 15 4 8 - - 0.0
26/10:50am 30.9 30.0 12.6 32 11.0 NNE 9 13 5 7 - - 0.0
26/10:40am 30.6 30.4 13.1 34 10.5 NE 6 11 3 6 - - 0.0
26/10:30am 30.4 30.1 13.2 35 10.4 N 7 9 4 5 - - 0.0
26/10:20am 29.7 29.0 13.2 36 9.9 NE 9 11 5 6 - - 0.0
26/10:10am 29.9 29.0 12.6 34 10.3 NNE 9 13 5 7 - - 0.0
26/10:00am 29.7 30.0 13.3 36 9.9 N 4 7 2 4 - - 0.0
26/09:50am 28.6 27.8 13.0 38 9.3 N 9 17 5 9 - - 0.0
26/09:40am 28.1 27.0 13.0 39 9.0 NNE 11 13 6 7 - - 0.0
26/09:30am 27.9 26.6 12.5 38 9.1 NNE 11 15 6 8 - - 0.0
26/09:20am 27.5 26.8 13.2 41 8.5 NE 9 13 5 7 - - 0.0
26/09:10am 27.6 26.6 13.3 41 8.5 NNE 11 17 6 9 - - 0.0
26/09:00am 27.4 26.8 13.5 42 8.3 N 9 11 5 6 - - 0.0
26/08:50am 26.6 26.4 13.7 45 7.7 NNE 7 11 4 6 - - 0.0
26/08:40am 26.2 25.8 14.0 47 7.3 NNE 9 17 5 9 - - 0.0
26/08:30am 25.8 24.5 13.8 47 7.2 N 13 17 7 9 - - 0.0
26/08:20am 25.7 24.4 13.8 47 7.1 N 13 15 7 8 - - 0.0
26/08:10am 25.3 24.9 14.0 49 6.8 NNE 9 13 5 7 - - 0.0
26/08:00am 24.6 23.7 13.8 51 6.4 NNE 11 15 6 8 - - 0.0
26/07:50am 24.3 24.3 14.2 53 6.0 NNE 7 11 4 6 - - 0.0
26/07:40am 23.9 23.5 14.2 54 5.8 NNE 9 11 5 6 - - 0.0
26/07:30am 23.5 23.2 14.3 56 5.5 N 9 11 5 6 - - 0.0
26/07:20am 23.0 22.3 14.3 58 5.2 NNE 11 13 6 7 - - 0.0
26/07:10am 22.7 22.3 14.2 58 5.0 NE 9 11 5 6 - - 0.0
26/07:00am 22.4 22.0 14.2 59 4.9 NE 9 13 5 7 - - 0.0
26/06:50am 21.9 21.5 14.2 61 4.6 NE 9 11 5 6 - - 0.0
26/06:40am 21.5 21.2 14.4 64 4.2 NE 9 11 5 6 - - 0.0
26/06:30am 21.1 21.3 14.6 66 3.9 ENE 7 9 4 5 - - 0.0
26/06:20am 20.4 20.6 14.7 70 3.4 ENE 7 9 4 5 - - 0.0
26/06:10am 19.5 19.8 15.0 75 2.7 ENE 7 9 4 5 - - 0.0
26/06:00am 18.8 18.7 15.0 78 2.2 ENE 9 11 5 6 - - 0.0
26/05:50am 18.3 18.2 15.0 81 1.9 ENE 9 11 5 6 - - 0.0
26/05:40am 17.9 18.1 14.8 82 1.8 ENE 7 9 4 5 - - 0.0
26/05:30am 17.5 17.3 14.8 84 1.6 ENE 9 9 5 5 - - 0.0
26/05:20am 17.4 17.2 14.7 84 1.6 E 9 9 5 5 - - 0.0
26/05:10am 17.5 17.7 14.8 84 1.6 E 7 9 4 5 - - 0.0
26/05:00am 17.9 18.2 14.6 81 1.9 E 6 7 3 4 - - 0.0
26/04:50am 18.4 19.3 15.1 81 2.0 ENE 4 4 2 2 - - 0.0
26/04:40am 18.4 19.7 15.2 81 1.9 ENE 2 4 1 2 - - 0.0
26/04:30am 18.3 18.8 15.1 81 1.9 ENE 6 7 3 4 - - 0.0
26/04:20am 18.5 19.0 15.1 80 2.0 E 6 7 3 4 - - 0.0
26/04:10am 18.9 19.5 15.2 79 2.2 E 6 6 3 3 - - 0.0
26/04:00am 19.5 20.1 15.3 76 2.5 ENE 6 7 3 4 - - 0.0
26/03:50am 19.6 20.2 15.2 76 2.6 NE 6 7 3 4 - - 0.0
26/03:40am 19.3 19.7 15.4 78 2.3 ENE 7 9 4 5 - - 0.0
26/03:30am 19.7 20.1 15.4 76 2.6 ENE 7 9 4 5 - - 0.0
26/03:20am 20.5 21.0 15.5 73 3.0 ENE 7 11 4 6 - - 0.0
26/03:10am 20.5 21.0 15.5 73 3.0 ENE 7 7 4 4 - - 0.0
26/03:00am 20.7 21.4 15.5 72 3.1 ENE 6 7 3 4 - - 0.0
26/02:50am 20.8 21.5 15.5 71 3.2 ENE 6 9 3 5 - - 0.0
26/02:40am 21.0 21.6 15.4 70 3.4 NE 6 7 3 4 - - 0.0
26/02:30am 21.2 21.6 15.4 69 3.5 NE 7 9 4 5 - - 0.0
26/02:20am 21.4 21.8 15.4 68 3.6 NE 7 7 4 4 - - 0.0
26/02:10am 21.5 21.9 15.4 68 3.7 NE 7 11 4 6 - - 0.0
26/02:00am 21.6 21.7 15.5 68 3.7 NE 9 11 5 6 - - 0.0
26/01:50am 21.7 21.8 15.6 68 3.7 NE 9 11 5 6 - - 0.0
26/01:40am 21.9 22.1 15.7 68 3.8 NE 9 11 5 6 - - 0.0
26/01:30am 22.0 22.2 15.7 67 3.8 NE 9 11 5 6 - - 0.0
26/01:20am 22.1 21.9 15.8 67 3.8 NE 11 13 6 7 - - 0.0
26/01:10am 22.2 22.4 15.8 67 3.9 NE 9 13 5 7 - - 0.0
26/01:00am 22.4 22.3 15.9 66 4.0 NE 11 13 6 7 - - 0.0
26/12:50am 22.5 22.4 16.0 66 4.0 NE 11 15 6 8 - - 0.0
26/12:40am 22.6 22.9 16.1 66 4.0 NE 9 13 5 7 - - 0.0
26/12:30am 22.8 23.2 16.3 66 4.0 NE 9 11 5 6 - - 0.0
26/12:20am 22.9 23.3 16.3 66 4.1 NE 9 11 5 6 - - 0.0
26/12:10am 23.1 23.1 16.3 65 4.2 NE 11 13 6 7 - - 0.0
26/12:00am 23.3 23.4 16.4 65 4.3 NE 11 15 6 8 - - 0.0
 
Date/Time
EST
Temp
°C
App
Temp
°C
Dew
Point
°C
Rel
Hum
%
Delta-T
°C
Wind Press
QNH
hPa
Press
MSL
hPa
Rain since
9am
mm
Dir  Spd
km/h
Gust
km/h
Spd
kts
Gust
kts
25/11:50pm 23.4 23.1 16.4 64 4.3 NE 13 17 7 9 - - 0.0
25/11:40pm 23.6 23.2 16.3 63 4.5 NE 13 17 7 9 - - 0.0
25/11:30pm 23.8 23.4 16.3 63 4.6 NE 13 17 7 9 - - 0.0
25/11:20pm 23.9 23.5 16.2 62 4.7 NNE 13 15 7 8 - - 0.0
25/11:10pm 24.1 23.7 16.2 61 4.9 NNE 13 15 7 8 - - 0.0
25/11:00pm 24.2 24.5 16.1 60 5.0 NE 9 15 5 8 - - 0.0
25/10:50pm 24.5 24.8 16.1 59 5.2 NE 9 11 5 6 - - 0.0
25/10:40pm 24.7 24.6 16.0 58 5.4 NE 11 13 6 7 - - 0.0
25/10:30pm 24.8 25.1 15.9 57 5.5 NE 9 15 5 8 - - 0.0
25/10:20pm 25.1 25.7 15.8 56 5.7 NE 7 11 4 6 - - 0.0
25/10:10pm 25.4 24.9 15.8 55 5.9 NNE 13 17 7 9 - - 0.0
25/10:00pm 25.7 25.1 15.6 53 6.2 NNE 13 15 7 8 - - 0.0
25/09:50pm 26.0 25.0 15.5 52 6.4 NNE 15 19 8 10 - - 0.0
25/09:40pm 26.3 25.5 15.0 49 6.9 NNE 13 17 7 9 - - 0.0
25/09:30pm 26.6 25.0 14.9 48 7.1 NNE 17 20 9 11 - - 0.0
25/09:20pm 26.8 24.7 14.7 47 7.4 NNE 19 20 10 11 - - 0.0
25/09:10pm 27.0 25.5 14.3 45 7.7 NNE 15 19 8 10 - - 0.0
25/09:00pm 27.3 26.1 14.0 44 8.0 NNE 13 15 7 8 - - 0.0
25/08:50pm 27.7 26.0 13.6 42 8.5 NNE 15 17 8 9 - - 0.0
25/08:40pm 27.8 26.0 13.4 41 8.6 NNE 15 17 8 9 - - 0.0
25/08:30pm 27.9 27.2 13.2 40 8.8 NNE 9 13 5 7 - - 0.0
25/08:20pm 28.2 27.1 13.0 39 9.1 NNE 11 15 6 8 - - 0.0
25/08:10pm 28.3 26.6 12.4 37 9.4 NNE 13 15 7 8 - - 0.0
25/08:00pm 28.1 27.2 11.2 35 9.8 NNE 7 9 4 5 - - 0.0
25/07:50pm 28.0 26.9 10.8 34 9.9 NNE 7 7 4 4 - - 0.0
25/07:40pm 28.4 27.5 10.8 33 10.1 N 6 7 3 4 - - 0.0
25/07:30pm 28.8 27.9 10.7 32 10.4 N 6 6 3 3 - - 0.0
25/07:20pm 29.3 28.4 10.7 31 10.7 N 6 6 3 3 - - 0.0
25/07:10pm 29.9 29.0 10.7 30 11.1 N 6 7 3 4 - - 0.0
25/07:00pm 30.4 29.3 10.6 29 11.5 N 7 7 4 4 - - 0.0
25/06:50pm 30.9 29.8 10.6 28 11.8 N 7 9 4 5 - - 0.0
25/06:40pm 31.5 30.4 10.6 27 12.2 N 7 9 4 5 - - 0.0
25/06:30pm 31.9 30.4 10.6 27 12.4 N 9 13 5 7 - - 0.0
25/06:20pm 32.2 30.3 10.5 26 12.6 NNW 11 17 6 9 - - 0.0
25/06:10pm 32.5 30.6 10.4 25 12.9 N 11 15 6 8 - - 0.0
25/06:00pm 32.8 30.9 10.6 25 13.0 N 11 15 6 8 - - 0.0
25/05:50pm 33.1 31.3 9.6 23 13.6 N 9 11 5 6 - - 0.0
25/05:40pm 33.2 30.8 10.0 24 13.5 N 13 17 7 9 - - 0.0
25/05:30pm 33.5 31.4 9.6 23 13.8 N 11 15 6 8 - - 0.0
25/05:20pm 33.5 31.4 8.4 21 14.2 NNW 9 11 5 6 - - 0.0
25/05:10pm 33.5 31.1 8.5 21 14.2 N 11 13 6 7 - - 0.0
25/05:00pm 33.6 31.2 8.5 21 14.3 NNE 11 17 6 9 - - 0.0
25/04:50pm 33.7 31.3 8.6 21 14.3 NE 11 15 6 8 - - 0.0
25/04:40pm 34.0 31.6 8.8 21 14.4 N 11 13 6 7 - - 0.0
25/04:30pm 34.0 31.6 8.6 21 14.5 N 11 19 6 10 - - 0.0
25/04:20pm 34.1 32.2 8.9 21 14.4 NNE 9 13 5 7 - - 0.0
25/04:10pm 34.1 33.1 8.8 21 14.5 ESE 4 9 2 5 - - 0.0
25/04:00pm 33.9 32.7 9.5 22 14.1 ENE 6 13 3 7 - - 0.0
25/03:50pm 34.0 32.6 9.4 22 14.2 NNE 7 11 4 6 - - 0.0

Other formats

Comma delimited format used in spreadsheet applications
http://www.bom.gov.au/fwo/IDQ60801/IDQ60801.99122.axf

JavaScript Object Notation format (JSON) in row-major order
http://www.bom.gov.au/fwo/IDQ60801/IDQ60801.99122.json

Data quality

Most of these data are generated automatically and are frequently updated. Quality checks on data are not normally performed. It is possible for incorrect values to appear. Refer to information at About Latest Weather Observations and please check the disclaimer before using these data.